Change Islands, Canada
Current Conditions -  °F | °C
As of 8:00 PM on Wednesday 26 Nov 2014 (Local Time) from CYQX Reporting Station
Broken Clouds Broken Clouds  
Wind Chill: 29°   Ceiling: 18000
Heat Index: 36°   Visibility: 20mi
Dew Point: 25°   Wind: 8mph
Humidity: 65%   Direction: 280°W
Pressure: 30.07"   Gusts: NA
Location:  49.65°N, 54.38°W
Report Text: CYQX 262300Z 28007KT 20SM FEW034 BKN180 BKN230 02/M04 A3007 RMK SC2AC4CI1 SLP191
Loading
Personal Weather Stations






























Interactive Weather Map New forecast layout! Learn more

10-Day Weather Forecast

Advertisements
Track Severe Weather on mobile